createdAt,value
2017-11-04T00:02:57.790Z,7.30
2017-11-04T00:05:59.686Z,7.20
2017-11-04T00:09:01.631Z,7.20
2017-11-04T00:12:04.317Z,7.10
2017-11-04T00:15:07.090Z,7.10
2017-11-04T00:18:09.015Z,7.10
2017-11-04T00:21:11.791Z,7.10
2017-11-04T00:24:13.787Z,7.00
2017-11-04T00:27:16.476Z,7.00
2017-11-04T00:30:18.393Z,7.00
2017-11-04T00:33:20.305Z,7.00
2017-11-04T00:36:22.249Z,7.00
2017-11-04T00:39:24.933Z,6.90
2017-11-04T00:42:27.628Z,6.80
2017-11-04T00:45:30.345Z,6.80
2017-11-04T00:48:33.120Z,6.80
2017-11-04T00:51:35.080Z,6.80
2017-11-04T00:54:37.007Z,6.80
2017-11-04T00:57:39.788Z,6.70
2017-11-04T01:00:41.718Z,6.70
2017-11-04T01:03:43.757Z,6.70
2017-11-04T01:06:45.654Z,6.70
2017-11-04T01:09:48.431Z,6.60
2017-11-04T01:12:50.330Z,6.60
2017-11-04T01:15:53.102Z,6.60
2017-11-04T01:18:55.318Z,6.60
2017-11-04T01:21:58.113Z,6.50
2017-11-04T01:25:00.093Z,6.50
2017-11-04T01:28:02.062Z,6.50
2017-11-04T01:31:04.074Z,6.50
2017-11-04T01:34:06.777Z,6.40
2017-11-04T01:37:09.441Z,6.40
2017-11-04T01:40:11.388Z,6.30
2017-11-04T01:43:13.281Z,6.30
2017-11-04T01:46:15.312Z,6.30
2017-11-04T01:49:18.110Z,6.20
2017-11-04T01:52:20.066Z,6.10
2017-11-04T01:55:21.985Z,6.10
2017-11-04T01:58:24.780Z,6.10
2017-11-04T02:01:26.749Z,6.10
2017-11-04T02:04:28.731Z,6.10
2017-11-04T02:07:30.667Z,6.10
2017-11-04T02:10:33.423Z,6.10
2017-11-04T02:13:35.317Z,6.10
2017-11-04T02:16:38.105Z,6.10
2017-11-04T02:19:40.777Z,6.10
2017-11-04T02:22:42.721Z,6.10
2017-11-04T02:25:44.665Z,6.10
2017-11-04T02:28:46.711Z,6.10
2017-11-04T02:31:48.734Z,6.00
2017-11-04T02:34:50.705Z,6.00
2017-11-04T02:37:52.703Z,6.00
2017-11-04T02:40:54.692Z,6.00
2017-11-04T02:43:57.359Z,5.90
2017-11-04T02:46:59.304Z,5.90
2017-11-04T02:50:01.222Z,5.90
2017-11-04T02:53:03.227Z,5.80
2017-11-04T02:56:06.669Z,5.80
2017-11-04T02:59:09.392Z,5.90
2017-11-04T03:02:11.313Z,5.80
2017-11-04T03:05:13.234Z,5.80
2017-11-04T03:08:15.187Z,5.80
2017-11-04T03:11:17.169Z,5.80
2017-11-04T03:14:19.085Z,5.70
2017-11-04T03:17:21.794Z,5.60
2017-11-04T03:20:23.718Z,5.60
2017-11-04T03:23:25.633Z,5.60
2017-11-04T03:26:29.053Z,5.70
2017-11-04T03:29:31.838Z,5.70
2017-11-04T03:32:34.622Z,5.70
2017-11-04T03:35:36.588Z,5.70
2017-11-04T03:38:38.503Z,5.70
2017-11-04T03:41:40.586Z,5.70
2017-11-04T03:44:42.487Z,5.70
2017-11-04T03:47:45.282Z,5.60
2017-11-04T03:50:47.959Z,5.60
2017-11-04T03:53:49.953Z,5.60
2017-11-04T03:56:51.921Z,5.60
2017-11-04T03:59:53.929Z,5.60
2017-11-04T04:02:55.877Z,5.60
2017-11-04T04:05:57.849Z,5.50
2017-11-04T04:08:59.852Z,5.50
2017-11-04T04:12:01.769Z,5.50
2017-11-04T04:15:04.438Z,5.50
2017-11-04T04:18:07.169Z,5.50
2017-11-04T04:21:09.937Z,5.40
2017-11-04T04:24:11.943Z,5.40
2017-11-04T04:27:13.861Z,5.40
2017-11-04T04:30:15.883Z,5.40
2017-11-04T04:33:17.785Z,5.40
2017-11-04T04:36:19.709Z,5.40
2017-11-04T04:39:21.671Z,5.40
2017-11-04T04:42:24.395Z,5.40
2017-11-04T04:45:26.303Z,5.40
2017-11-04T04:48:28.245Z,5.30
2017-11-04T04:51:30.144Z,5.30
2017-11-04T04:54:32.235Z,5.30
2017-11-04T04:57:34.737Z,5.30
2017-11-04T05:00:36.749Z,5.40
2017-11-04T05:03:38.687Z,5.40
2017-11-04T05:06:40.611Z,5.40
2017-11-04T05:09:42.550Z,5.40
2017-11-04T05:12:44.569Z,5.40
2017-11-04T05:15:46.526Z,5.40
2017-11-04T05:18:48.476Z,5.30
2017-11-04T05:21:51.256Z,5.30
2017-11-04T05:24:53.541Z,5.30
2017-11-04T05:27:55.505Z,5.30
2017-11-04T05:30:57.451Z,5.20
2017-11-04T05:33:59.496Z,5.20
2017-11-04T05:37:01.459Z,5.20
2017-11-04T05:40:03.546Z,5.20
2017-11-04T05:43:05.498Z,5.20
2017-11-04T05:46:07.413Z,5.20
2017-11-04T05:49:09.390Z,5.20
2017-11-04T05:52:11.386Z,5.30
2017-11-04T05:55:13.339Z,5.30
2017-11-04T05:58:15.373Z,5.30
2017-11-04T06:01:18.614Z,5.30
2017-11-04T06:04:20.603Z,5.20
2017-11-04T06:07:22.659Z,5.30
2017-11-04T06:10:25.446Z,5.20
2017-11-04T06:13:27.378Z,5.20
2017-11-04T06:16:29.286Z,5.30
2017-11-04T06:19:31.399Z,5.30
2017-11-04T06:22:34.123Z,5.30
2017-11-04T06:25:36.064Z,5.30
2017-11-04T06:28:37.985Z,5.30
2017-11-04T06:31:39.933Z,5.30
2017-11-04T06:34:42.630Z,5.30
2017-11-04T06:37:45.250Z,5.30
2017-11-04T06:40:47.942Z,5.40
2017-11-04T06:43:50.628Z,5.40
2017-11-04T06:46:52.594Z,5.30
2017-11-04T06:49:54.572Z,5.40
2017-11-04T06:52:56.809Z,5.40
2017-11-04T06:55:58.875Z,5.40
2017-11-04T06:59:00.834Z,5.40
2017-11-04T07:02:02.773Z,5.40
2017-11-04T07:05:04.717Z,5.40
2017-11-04T07:08:06.662Z,5.40
2017-11-04T07:11:08.580Z,5.50
2017-11-04T07:14:10.570Z,5.50
2017-11-04T07:17:12.489Z,5.50
2017-11-04T07:20:14.503Z,5.60
2017-11-04T07:23:16.520Z,5.60
2017-11-04T07:26:19.307Z,5.70
2017-11-04T07:29:21.273Z,5.70
2017-11-04T07:32:23.267Z,5.70
2017-11-04T07:35:25.233Z,5.80
2017-11-04T07:38:27.149Z,5.90
2017-11-04T07:41:29.241Z,5.90
2017-11-04T07:44:32.028Z,6.00
2017-11-04T07:47:33.985Z,6.10
2017-11-04T07:50:35.926Z,6.10
2017-11-04T07:53:37.866Z,6.20
2017-11-04T07:56:39.880Z,6.30
2017-11-04T07:59:42.642Z,6.30
2017-11-04T08:02:44.574Z,6.30
2017-11-04T08:05:46.510Z,6.40
2017-11-04T08:08:48.512Z,6.50
2017-11-04T08:11:50.526Z,6.50
2017-11-04T08:14:52.486Z,6.60
2017-11-04T08:17:55.175Z,6.80
2017-11-04T08:20:57.130Z,6.80
2017-11-04T08:23:59.061Z,6.90
2017-11-04T08:27:01.753Z,7.00
2017-11-04T08:30:03.834Z,7.00
2017-11-04T08:33:06.636Z,7.40
2017-11-04T08:36:09.338Z,7.60
2017-11-04T08:39:12.112Z,7.90
2017-11-04T08:42:14.086Z,7.90
2017-11-04T08:45:16.108Z,8.30
2017-11-04T08:48:18.766Z,9.00
2017-11-04T08:51:20.789Z,9.00
2017-11-04T08:54:23.579Z,9.10
2017-11-04T08:57:25.558Z,9.10
2017-11-04T09:00:27.459Z,9.30
2017-11-04T09:03:30.252Z,9.50
2017-11-04T09:06:33.037Z,10.10
2017-11-04T09:09:35.005Z,10.00
2017-11-04T09:12:36.934Z,10.80
2017-11-04T09:15:38.966Z,11.10
2017-11-04T09:18:40.967Z,11.40
2017-11-04T09:21:42.938Z,12.00
2017-11-04T09:24:44.861Z,12.30
2017-11-04T09:27:47.540Z,12.40
2017-11-04T09:30:49.477Z,12.30
2017-11-04T09:33:51.394Z,12.40
2017-11-04T09:36:53.369Z,13.00
2017-11-04T09:39:55.290Z,14.10
2017-11-04T09:42:58.046Z,14.40
2017-11-04T09:46:00.001Z,15.50
2017-11-04T09:49:01.942Z,15.40
2017-11-04T09:52:04.630Z,15.00
2017-11-04T09:55:08.634Z,15.00
2017-11-04T09:58:11.997Z,15.00
2017-11-04T10:01:14.679Z,14.50
2017-11-04T10:04:16.635Z,14.50
2017-11-04T10:07:18.619Z,13.40
2017-11-04T10:10:20.566Z,12.50
2017-11-04T10:13:22.461Z,11.70
2017-11-04T10:16:24.407Z,11.30
2017-11-04T10:19:27.099Z,10.70
2017-11-04T10:22:29.801Z,10.50
2017-11-04T10:25:32.483Z,10.50
2017-11-04T10:28:34.480Z,10.40
2017-11-04T10:31:37.147Z,10.50
2017-11-04T10:34:39.128Z,10.50
2017-11-04T10:37:41.138Z,10.70
2017-11-04T10:40:44.593Z,11.50
2017-11-04T10:43:46.552Z,11.50
2017-11-04T10:46:49.350Z,11.30
2017-11-04T10:49:52.123Z,11.00
2017-11-04T10:52:54.428Z,11.00
2017-11-04T10:55:56.410Z,10.90
2017-11-04T10:58:58.375Z,11.00
2017-11-04T11:02:00.359Z,11.10
2017-11-04T11:05:02.666Z,11.30
2017-11-04T11:08:04.630Z,11.40
2017-11-04T11:11:06.926Z,11.60
2017-11-04T11:14:08.922Z,11.90
2017-11-04T11:17:11.209Z,12.10
2017-11-04T11:20:13.217Z,12.50
2017-11-04T11:23:16.228Z,14.70
2017-11-04T11:26:18.940Z,16.70
2017-11-04T11:29:22.039Z,18.10
2017-11-04T11:32:24.790Z,19.30
2017-11-04T11:35:27.102Z,19.20
2017-11-04T11:38:29.118Z,19.80
2017-11-04T11:41:32.189Z,20.60
2017-11-04T11:44:35.113Z,20.90
2017-11-04T11:47:37.494Z,20.90
2017-11-04T11:50:39.467Z,20.70
2017-11-04T11:53:41.759Z,19.90
2017-11-04T11:56:43.680Z,18.80
2017-11-04T11:59:46.749Z,18.60
2017-11-04T12:02:48.737Z,18.60
2017-11-04T12:05:51.134Z,17.80
2017-11-04T12:08:53.093Z,18.10
2017-11-04T12:11:55.437Z,19.50
2017-11-04T12:14:58.229Z,20.30
2017-11-04T12:18:00.467Z,20.30
2017-11-04T12:21:02.390Z,19.30
2017-11-04T12:24:04.670Z,19.60
2017-11-04T12:27:06.698Z,20.20
2017-11-04T12:30:09.765Z,20.90
2017-11-04T12:33:11.774Z,20.90
2017-11-04T12:36:14.060Z,21.40
2017-11-04T12:39:15.987Z,21.40
2017-11-04T12:42:18.309Z,21.10
2017-11-04T12:45:20.328Z,21.10
2017-11-04T12:48:23.405Z,18.90
2017-11-04T12:51:25.451Z,18.90
2017-11-04T12:54:27.809Z,17.20
2017-11-04T12:57:30.484Z,15.10
2017-11-04T13:00:33.360Z,15.10
2017-11-04T13:03:35.272Z,14.60
2017-11-04T13:06:37.657Z,14.20
2017-11-04T13:09:39.643Z,13.90
2017-11-04T13:12:41.917Z,13.40
2017-11-04T13:15:43.918Z,13.10
2017-11-04T13:18:46.228Z,13.00
2017-11-04T13:21:48.194Z,12.90
2017-11-04T13:24:50.472Z,12.80
2017-11-04T13:27:52.389Z,12.60
2017-11-04T13:30:55.171Z,12.50
2017-11-04T13:33:57.186Z,12.40
2017-11-04T13:37:00.195Z,12.30
2017-11-04T13:40:03.743Z,12.30
2017-11-04T13:43:06.068Z,12.30
2017-11-04T13:46:08.077Z,12.50
2017-11-04T13:49:10.365Z,12.60
2017-11-04T13:52:12.319Z,12.60
2017-11-04T13:55:15.434Z,12.60
2017-11-04T13:58:17.354Z,12.50
2017-11-04T14:01:20.431Z,12.70
2017-11-04T14:04:22.352Z,12.70
2017-11-04T14:07:24.662Z,12.60
2017-11-04T14:10:26.554Z,12.30
2017-11-04T14:13:28.866Z,12.00
2017-11-04T14:16:30.842Z,11.90
2017-11-04T14:19:33.179Z,11.70
2017-11-04T14:22:35.857Z,11.60
2017-11-04T14:25:37.785Z,11.60
2017-11-04T14:28:39.708Z,11.50
2017-11-04T14:31:41.659Z,11.50
2017-11-04T14:34:43.588Z,11.40
2017-11-04T14:37:45.857Z,11.40
2017-11-04T14:40:47.854Z,11.40
2017-11-04T14:43:50.962Z,11.40
2017-11-04T14:46:52.973Z,11.40
2017-11-04T14:49:55.988Z,11.60
2017-11-04T14:52:57.942Z,11.60
2017-11-04T14:56:00.241Z,11.60
2017-11-04T14:59:03.023Z,11.50
2017-11-04T15:02:05.190Z,11.50
2017-11-04T15:05:07.201Z,11.50
2017-11-04T15:08:09.490Z,11.40
2017-11-04T15:11:11.388Z,11.30
2017-11-04T15:14:14.126Z,11.10
2017-11-04T15:17:16.028Z,11.10
2017-11-04T15:20:18.032Z,11.10
2017-11-04T15:23:19.926Z,10.90
2017-11-04T15:26:22.224Z,10.90
2017-11-04T15:29:24.173Z,10.80
2017-11-04T15:32:26.162Z,10.70
2017-11-04T15:35:28.095Z,10.60
2017-11-04T15:38:30.126Z,10.50
2017-11-04T15:41:32.121Z,10.50
2017-11-04T15:44:34.081Z,10.40
2017-11-04T15:47:36.072Z,10.30
2017-11-04T15:50:38.067Z,10.30
2017-11-04T15:53:40.077Z,10.40
2017-11-04T15:56:44.185Z,10.30
2017-11-04T15:59:46.158Z,10.30
2017-11-04T16:02:48.162Z,10.20
2017-11-04T16:05:50.057Z,10.20
2017-11-04T16:08:53.837Z,10.20
2017-11-04T16:11:55.762Z,10.10
2017-11-04T16:14:58.456Z,10.10
2017-11-04T16:18:00.403Z,10.10
2017-11-04T16:21:02.357Z,10.10
2017-11-04T16:24:04.291Z,10.10
2017-11-04T16:27:07.279Z,10.10
2017-11-04T16:30:09.500Z,10.10
2017-11-04T16:33:12.602Z,10.00
2017-11-04T16:36:14.558Z,10.00
2017-11-04T16:39:16.708Z,10.00
2017-11-04T16:42:18.601Z,9.90
2017-11-04T16:45:20.912Z,10.00
2017-11-04T16:48:22.807Z,10.00
2017-11-04T16:51:25.102Z,10.00
2017-11-04T16:54:27.055Z,9.90
2017-11-04T16:57:29.403Z,10.00
2017-11-04T17:00:32.195Z,9.90
2017-11-04T17:03:34.975Z,9.90
2017-11-04T17:06:36.869Z,9.90
2017-11-04T17:09:40.373Z,9.90
2017-11-04T17:12:42.264Z,9.90
2017-11-04T17:15:44.255Z,9.90
2017-11-04T17:18:46.146Z,9.80
2017-11-04T17:21:49.218Z,9.80
2017-11-04T17:24:51.230Z,9.80
2017-11-04T17:27:53.164Z,9.80
2017-11-04T17:30:55.058Z,9.80
2017-11-04T17:33:57.742Z,9.80
2017-11-04T17:36:59.669Z,9.80
2017-11-04T17:40:01.950Z,9.80
2017-11-04T17:43:03.930Z,9.80
2017-11-04T17:46:05.914Z,9.80
2017-11-04T17:49:07.902Z,9.80
2017-11-04T17:52:10.086Z,9.80
2017-11-04T17:55:12.067Z,9.90
2017-11-04T17:58:14.349Z,9.90
2017-11-04T18:01:16.370Z,9.90
2017-11-04T18:04:19.242Z,10.00
2017-11-04T18:07:21.638Z,10.00
2017-11-04T18:10:23.645Z,10.00
2017-11-04T18:13:26.436Z,10.00
2017-11-04T18:16:28.724Z,9.90
2017-11-04T18:19:30.700Z,10.00
2017-11-04T18:22:32.669Z,10.00
2017-11-04T18:25:34.595Z,10.00
2017-11-04T18:28:37.378Z,10.00
2017-11-04T18:31:39.282Z,10.00
2017-11-04T18:34:42.082Z,10.00
2017-11-04T18:37:44.746Z,10.00
2017-11-04T18:40:47.044Z,10.00
2017-11-04T18:43:49.020Z,10.00
2017-11-04T18:46:51.326Z,10.00
2017-11-04T18:49:53.304Z,10.00
2017-11-04T18:52:55.308Z,9.90
2017-11-04T18:55:58.112Z,9.90
2017-11-04T18:59:00.797Z,9.90
2017-11-04T19:02:02.711Z,9.90
2017-11-04T19:05:04.633Z,10.00
2017-11-04T19:08:06.639Z,10.00
2017-11-04T19:11:09.065Z,10.00
2017-11-04T19:14:10.990Z,10.00
2017-11-04T19:17:12.940Z,10.00
2017-11-04T19:20:14.859Z,10.10
2017-11-04T19:23:17.181Z,10.10
2017-11-04T19:26:19.112Z,10.10
2017-11-04T19:29:22.262Z,10.10
2017-11-04T19:32:24.263Z,10.10
2017-11-04T19:35:26.195Z,10.10
2017-11-04T19:38:28.136Z,10.10
2017-11-04T19:41:30.123Z,10.20
2017-11-04T19:44:32.114Z,10.20
2017-11-04T19:47:34.502Z,10.20
2017-11-04T19:50:36.439Z,10.30
2017-11-04T19:53:38.754Z,10.30
2017-11-04T19:56:40.803Z,10.30
2017-11-04T19:59:45.116Z,10.40
2017-11-04T20:02:49.778Z,10.40
2017-11-04T20:05:53.275Z,10.40
2017-11-04T20:08:57.836Z,10.50
2017-11-04T20:12:02.514Z,10.60
2017-11-04T20:15:06.757Z,10.70
2017-11-04T20:18:11.324Z,10.90
2017-11-04T20:21:16.578Z,11.00
2017-11-04T20:24:19.726Z,11.10
2017-11-04T20:27:22.516Z,11.30
2017-11-04T20:30:24.502Z,11.20
2017-11-04T20:33:26.397Z,11.40
2017-11-04T20:36:28.400Z,11.50
2017-11-04T20:39:30.304Z,11.60
2017-11-04T20:42:32.259Z,11.60
2017-11-04T20:45:34.301Z,11.60
2017-11-04T20:48:37.412Z,11.70
2017-11-04T20:51:39.376Z,11.70
2017-11-04T20:54:41.359Z,11.80
2017-11-04T20:57:43.286Z,11.80
2017-11-04T21:00:45.430Z,11.90
2017-11-04T21:03:47.431Z,11.90
2017-11-04T21:06:49.765Z,12.00
2017-11-04T21:09:51.738Z,12.10
2017-11-04T21:12:54.164Z,12.10
2017-11-04T21:15:56.148Z,12.10
2017-11-04T21:18:58.446Z,12.20
2017-11-04T21:22:01.150Z,12.20
2017-11-04T21:25:03.653Z,12.20
2017-11-04T21:28:05.602Z,12.20
2017-11-04T21:31:07.964Z,12.20
2017-11-04T21:34:09.886Z,12.20
2017-11-04T21:37:11.810Z,12.20
2017-11-04T21:40:14.303Z,12.20
2017-11-04T21:43:16.646Z,12.20
2017-11-04T21:46:19.970Z,12.20
2017-11-04T21:49:22.389Z,12.20
2017-11-04T21:52:25.075Z,12.20
2017-11-04T21:55:27.337Z,12.20
2017-11-04T21:58:30.165Z,12.20
2017-11-04T22:01:33.305Z,12.20
2017-11-04T22:04:35.222Z,12.20
2017-11-04T22:07:37.273Z,12.20
2017-11-04T22:10:39.273Z,12.20
2017-11-04T22:13:41.280Z,12.30
2017-11-04T22:16:44.061Z,12.30
2017-11-04T22:19:46.364Z,12.30
2017-11-04T22:22:48.325Z,12.30
2017-11-04T22:25:50.269Z,12.30
2017-11-04T22:28:52.335Z,12.40
2017-11-04T22:31:54.625Z,12.40
2017-11-04T22:34:56.548Z,12.40
2017-11-04T22:37:58.690Z,12.40
2017-11-04T22:41:00.590Z,12.40
2017-11-04T22:44:02.905Z,12.50
2017-11-04T22:47:04.897Z,12.50
2017-11-04T22:50:06.870Z,12.50
2017-11-04T22:53:09.382Z,12.50
2017-11-04T22:56:11.796Z,12.60
2017-11-04T22:59:13.801Z,12.60
2017-11-04T23:02:15.751Z,12.60
2017-11-04T23:05:17.658Z,12.60
2017-11-04T23:08:19.612Z,12.60
2017-11-04T23:11:22.432Z,12.60
2017-11-04T23:14:25.986Z,12.60
2017-11-04T23:17:27.982Z,12.60
2017-11-04T23:20:30.323Z,12.70
2017-11-04T23:23:33.013Z,12.70
2017-11-04T23:26:35.305Z,12.70
2017-11-04T23:29:37.274Z,12.70
2017-11-04T23:32:39.274Z,12.80
2017-11-04T23:35:41.277Z,12.70
2017-11-04T23:38:43.278Z,12.70
2017-11-04T23:41:45.946Z,12.60
2017-11-04T23:44:48.615Z,12.50
2017-11-04T23:47:50.568Z,12.50
2017-11-04T23:50:52.854Z,12.40
2017-11-04T23:53:54.806Z,12.40
2017-11-04T23:56:57.061Z,12.40
2017-11-04T23:59:58.990Z,12.30
